createdAt,value
2019-06-15T03:59:55.468Z,58.98
2019-06-15T04:02:25.129Z,58.71
2019-06-15T04:04:55.138Z,58.63
2019-06-15T04:07:24.289Z,58.58
2019-06-15T04:09:53.511Z,58.56
2019-06-15T04:12:22.656Z,58.46
2019-06-15T04:14:51.803Z,58.43
2019-06-15T04:17:20.907Z,58.40
2019-06-15T04:19:50.033Z,58.41
2019-06-15T04:22:19.091Z,58.42
2019-06-15T04:24:48.229Z,58.47
2019-06-15T04:27:17.315Z,58.42
2019-06-15T04:29:46.471Z,58.40
2019-06-15T04:32:15.613Z,58.23
2019-06-15T04:34:44.700Z,58.05
2019-06-15T04:37:13.983Z,57.85
2019-06-15T04:39:43.187Z,57.75
2019-06-15T04:42:12.359Z,57.62
2019-06-15T04:44:41.486Z,57.62
2019-06-15T04:47:10.599Z,57.59
2019-06-15T04:49:39.779Z,57.46
2019-06-15T04:52:08.995Z,57.42
2019-06-15T04:54:38.106Z,57.43
2019-06-15T04:57:07.237Z,57.46
2019-06-15T04:59:36.356Z,57.42
2019-06-15T05:02:05.464Z,57.38
2019-06-15T05:04:34.649Z,57.30
2019-06-15T05:07:03.786Z,57.17
2019-06-15T05:09:32.870Z,57.10
2019-06-15T05:12:01.984Z,56.67
2019-06-15T05:14:31.081Z,56.38
2019-06-15T05:17:00.180Z,56.02
2019-06-15T05:19:29.296Z,55.80
2019-06-15T05:21:58.486Z,55.77
2019-06-15T05:24:27.740Z,55.49
2019-06-15T05:27:05.780Z,55.27
2019-06-15T05:29:27.982Z,54.95
2019-06-15T05:31:57.278Z,54.67
2019-06-15T05:34:26.456Z,54.42
2019-06-15T05:36:55.665Z,54.41
2019-06-15T05:39:24.870Z,54.27
2019-06-15T05:41:53.961Z,54.29
2019-06-15T05:44:23.135Z,54.16
2019-06-15T05:46:52.172Z,53.90
2019-06-15T05:49:21.282Z,53.72
2019-06-15T05:51:50.401Z,53.69
2019-06-15T05:54:19.544Z,53.73
2019-06-15T05:56:48.709Z,53.68
2019-06-15T05:59:17.843Z,53.94
2019-06-15T06:01:47.124Z,53.83
2019-06-15T06:04:16.262Z,53.91
2019-06-15T06:06:45.438Z,53.77
2019-06-15T06:09:14.634Z,53.76
2019-06-15T06:11:43.851Z,54.04
2019-06-15T06:14:12.982Z,53.83
2019-06-15T06:16:42.180Z,53.74
2019-06-15T06:19:11.270Z,53.80
2019-06-15T06:21:40.470Z,54.06
2019-06-15T06:24:09.653Z,54.13
2019-06-15T06:26:38.925Z,54.31
2019-06-15T06:29:08.262Z,54.41
2019-06-15T06:31:37.577Z,54.48
2019-06-15T06:34:06.864Z,54.62
2019-06-15T06:36:36.880Z,54.77
2019-06-15T06:39:07.275Z,54.56
2019-06-15T06:41:36.410Z,54.54
2019-06-15T06:44:05.775Z,54.64
2019-06-15T06:46:34.986Z,54.64
2019-06-15T06:49:04.434Z,54.96
2019-06-15T06:51:33.685Z,55.03
2019-06-15T06:54:02.884Z,54.97
2019-06-15T06:56:32.161Z,55.02
2019-06-15T06:59:01.366Z,54.96
2019-06-15T07:01:30.956Z,54.79
2019-06-15T07:04:00.539Z,54.69
2019-06-15T07:06:29.751Z,54.57
2019-06-15T07:08:59.002Z,54.53
2019-06-15T07:11:28.553Z,54.55
2019-06-15T07:13:57.918Z,54.78
2019-06-15T07:16:27.179Z,54.67
2019-06-15T07:18:56.506Z,54.81
2019-06-15T07:21:34.767Z,54.78
2019-06-15T07:24:04.124Z,54.69
2019-06-15T07:26:34.073Z,54.71
2019-06-15T07:29:03.450Z,54.59
2019-06-15T07:31:32.762Z,54.15
2019-06-15T07:34:02.998Z,53.50
2019-06-15T07:36:32.287Z,51.75
2019-06-15T07:39:01.722Z,49.52
2019-06-15T07:41:31.367Z,46.99
2019-06-15T07:44:00.931Z,45.55
2019-06-15T07:46:32.959Z,44.80
2019-06-15T10:29:41.908Z,35.08
2019-06-15T10:32:05.885Z,33.89
2019-06-15T10:34:38.075Z,33.37
2019-06-15T10:37:07.140Z,32.81
2019-06-15T10:39:39.237Z,30.15
2019-06-15T10:42:08.289Z,28.46
2019-06-15T10:44:42.596Z,27.08
2019-06-15T10:47:11.667Z,25.99
2019-06-15T10:49:40.762Z,23.83
2019-06-15T10:52:09.793Z,22.06
2019-06-15T10:54:38.903Z,21.01
2019-06-15T10:57:07.913Z,19.85
2019-06-15T10:59:39.950Z,19.57
2019-06-15T11:02:09.029Z,19.44
2019-06-15T11:04:38.153Z,19.28
2019-06-15T11:07:07.150Z,19.51
2019-06-15T11:09:42.384Z,19.63
2019-06-15T11:12:23.291Z,20.09
2019-06-15T11:14:52.362Z,19.63
2019-06-15T11:17:21.396Z,19.52
2019-06-15T11:19:50.491Z,19.14
2019-06-15T11:22:19.495Z,18.66
2019-06-15T11:25:09.926Z,19.26
2019-06-15T11:27:38.957Z,19.36
2019-06-15T11:30:13.831Z,20.24
2019-06-15T11:32:38.999Z,20.85
2019-06-15T11:35:08.119Z,21.63
2019-06-15T11:37:37.502Z,22.34
2019-06-15T11:40:08.825Z,22.45
2019-06-15T11:42:37.893Z,22.35
2019-06-15T11:45:07.036Z,22.89
2019-06-15T11:47:36.505Z,23.62
2019-06-15T11:50:05.794Z,24.94
2019-06-15T11:52:34.900Z,25.66
2019-06-15T11:55:04.296Z,25.95
2019-06-15T11:57:33.560Z,25.76
2019-06-15T12:00:02.579Z,25.69
2019-06-15T12:02:31.762Z,25.97
2019-06-15T12:05:03.115Z,26.49
2019-06-15T12:07:34.409Z,26.33
2019-06-15T12:10:03.608Z,26.36
2019-06-15T12:12:33.042Z,26.57
2019-06-15T12:15:06.006Z,26.78
2019-06-15T12:17:35.148Z,26.28
2019-06-15T12:20:04.619Z,26.45
2019-06-15T12:22:36.239Z,25.82
2019-06-15T12:25:06.896Z,26.01
2019-06-15T12:27:38.775Z,25.94
2019-06-15T12:30:08.384Z,26.14
2019-06-15T12:32:37.592Z,26.45
2019-06-15T12:35:06.994Z,26.39
2019-06-15T12:37:38.748Z,26.16
2019-06-15T12:40:08.024Z,25.90
2019-06-15T12:42:40.215Z,25.87
2019-06-15T12:45:09.287Z,26.24
2019-06-15T12:47:38.528Z,25.98
2019-06-15T12:50:07.950Z,26.04
2019-06-15T12:52:37.058Z,26.06
2019-06-15T12:55:06.623Z,26.03
2019-06-15T12:57:38.157Z,26.32
2019-06-15T13:00:07.420Z,26.77
2019-06-15T13:02:36.729Z,27.08
2019-06-15T13:05:06.248Z,27.10
2019-06-15T13:07:35.456Z,27.41
2019-06-15T13:10:04.789Z,27.78
2019-06-15T13:12:36.127Z,28.17
2019-06-15T13:15:05.883Z,28.23
2019-06-15T13:17:35.237Z,28.76
2019-06-15T13:20:04.852Z,28.89
2019-06-15T13:22:35.124Z,28.75
2019-06-15T13:25:04.646Z,29.05
2019-06-15T13:27:33.940Z,29.24
2019-06-15T13:30:03.087Z,29.48
2019-06-15T13:32:33.108Z,29.42
2019-06-15T13:35:05.538Z,29.59
2019-06-15T13:37:42.002Z,29.60
2019-06-15T13:40:05.742Z,29.96
2019-06-15T13:42:34.885Z,29.98
2019-06-15T13:45:04.225Z,30.09
2019-06-15T13:47:34.579Z,30.26
2019-06-15T13:50:03.639Z,29.92
2019-06-15T13:52:32.749Z,30.00
2019-06-15T13:55:01.892Z,29.79
2019-06-15T13:57:31.006Z,30.05
2019-06-15T14:00:00.211Z,29.92
2019-06-15T14:02:29.256Z,30.17
2019-06-15T14:04:58.313Z,29.99
2019-06-15T14:07:27.406Z,29.77
2019-06-15T14:09:56.497Z,30.20
2019-06-15T14:12:25.531Z,30.36
2019-06-15T14:14:54.602Z,30.52
2019-06-15T14:17:23.622Z,30.09
2019-06-15T14:19:52.710Z,29.80
2019-06-15T14:22:21.814Z,29.53
2019-06-15T14:24:50.909Z,30.11
2019-06-15T14:27:19.948Z,30.35
2019-06-15T14:29:48.974Z,30.51
2019-06-15T14:32:18.025Z,30.23
2019-06-15T14:34:47.087Z,30.23
2019-06-15T14:37:16.157Z,30.42
2019-06-15T14:39:45.230Z,30.55
2019-06-15T14:42:14.243Z,30.29
2019-06-15T14:44:43.320Z,30.32
2019-06-15T14:47:12.423Z,30.55
2019-06-15T14:49:41.445Z,30.23
2019-06-15T14:52:10.490Z,29.91
2019-06-15T14:54:42.293Z,29.96
2019-06-15T14:57:11.299Z,29.94
2019-06-15T14:59:52.007Z,30.06
2019-06-15T15:02:14.210Z,30.06
2019-06-15T15:04:41.926Z,30.18
2019-06-15T15:07:11.006Z,30.35
2019-06-15T15:09:40.063Z,30.50
2019-06-15T15:12:09.106Z,30.29
2019-06-15T15:14:38.283Z,30.25
2019-06-15T15:17:07.267Z,30.24
2019-06-15T15:19:36.322Z,30.47
2019-06-15T15:22:05.367Z,30.62
2019-06-15T15:24:34.423Z,30.92
2019-06-15T15:27:03.436Z,30.75
2019-06-15T15:29:32.427Z,31.02
2019-06-15T15:32:01.507Z,31.33
2019-06-15T15:34:30.627Z,31.60
2019-06-15T15:36:59.732Z,30.80
2019-06-15T15:39:28.711Z,30.23
2019-06-15T15:41:57.761Z,29.88
2019-06-15T15:44:27.102Z,29.91
2019-06-15T15:46:57.036Z,30.12
2019-06-15T15:49:26.910Z,31.03
2019-06-15T15:51:56.504Z,31.86
2019-06-15T15:54:25.764Z,31.91
2019-06-15T15:56:55.968Z,31.90
2019-06-15T15:59:25.212Z,31.94
2019-06-15T16:01:56.497Z,31.30
2019-06-15T16:04:26.215Z,30.56
2019-06-15T16:06:56.204Z,30.43
2019-06-15T16:09:27.142Z,30.25
2019-06-15T16:11:56.620Z,30.07
2019-06-15T16:14:26.605Z,30.02
2019-06-15T16:16:56.066Z,29.87
2019-06-15T16:19:26.210Z,30.01
2019-06-15T16:21:56.066Z,29.85
2019-06-15T16:24:27.310Z,29.80
2019-06-15T16:26:56.630Z,29.94
2019-06-15T16:29:25.816Z,30.38
2019-06-15T16:31:56.415Z,30.52
2019-06-15T16:34:27.018Z,30.47
2019-06-15T16:36:57.042Z,30.77
2019-06-15T16:39:26.873Z,31.00
2019-06-15T16:41:56.268Z,30.93
2019-06-15T16:44:25.355Z,31.13
2019-06-15T16:46:56.550Z,30.75
2019-06-15T16:49:26.889Z,30.29
2019-06-15T16:51:56.095Z,29.88
2019-06-15T16:54:27.064Z,29.42
2019-06-15T16:56:55.856Z,29.18
2019-06-15T16:59:24.872Z,28.95
2019-06-15T17:01:56.055Z,29.04
2019-06-15T17:04:26.866Z,29.02
2019-06-15T17:06:56.665Z,28.86
2019-06-15T17:09:27.599Z,28.89
2019-06-15T17:11:57.097Z,28.72
2019-06-15T17:14:27.070Z,29.04
2019-06-15T17:16:56.770Z,29.04
2019-06-15T17:19:26.983Z,29.17
2019-06-15T17:21:58.219Z,29.25
2019-06-15T17:24:27.248Z,29.36
2019-06-15T17:26:57.084Z,29.19
2019-06-15T17:29:26.238Z,29.26
2019-06-15T17:31:57.037Z,29.81
2019-06-15T17:34:26.300Z,29.81
2019-06-15T17:36:57.446Z,30.27
2019-06-15T17:39:29.359Z,30.70
2019-06-15T17:41:56.983Z,30.97
2019-06-15T17:44:26.151Z,31.02
2019-06-15T17:46:56.555Z,31.25
2019-06-15T17:49:27.090Z,31.25
2019-06-15T17:51:56.309Z,31.20
2019-06-15T17:54:27.348Z,31.10
2019-06-15T17:56:56.836Z,31.00
2019-06-15T17:59:26.648Z,30.87
2019-06-15T18:01:55.845Z,30.84
2019-06-15T18:04:24.965Z,30.90
2019-06-15T18:06:56.641Z,31.06
2019-06-15T18:09:25.936Z,31.14
2019-06-15T18:11:57.099Z,31.44
2019-06-15T18:14:26.373Z,31.70
2019-06-15T18:16:58.072Z,31.70
2019-06-15T18:19:26.282Z,31.74
2019-06-15T18:21:56.178Z,31.58
2019-06-15T18:24:26.605Z,31.57
2019-06-15T18:26:56.510Z,31.52
2019-06-15T18:29:26.418Z,31.52
2019-06-15T18:31:56.692Z,31.79
2019-06-15T18:34:25.776Z,32.05
2019-06-15T18:36:56.180Z,32.36
2019-06-15T18:39:26.394Z,32.60
2019-06-15T18:41:56.000Z,32.78
2019-06-15T18:44:26.875Z,33.03
2019-06-15T18:46:56.519Z,33.29
2019-06-15T18:49:26.782Z,33.79
2019-06-15T18:51:56.721Z,33.83
2019-06-15T18:54:26.533Z,34.42
2019-06-15T18:56:56.613Z,34.42
2019-06-15T18:59:26.182Z,34.57
2019-06-15T19:01:56.116Z,34.73
2019-06-15T19:04:30.731Z,35.33
2019-06-15T19:06:56.244Z,35.42
2019-06-15T19:09:26.747Z,35.49
2019-06-15T19:11:56.622Z,36.06
2019-06-15T19:14:27.093Z,36.27
2019-06-15T19:16:56.732Z,36.29
2019-06-15T19:19:26.545Z,36.68
2019-06-15T19:21:57.155Z,36.69
2019-06-15T19:24:26.374Z,36.74
2019-06-15T19:26:58.166Z,37.10
2019-06-15T19:29:26.915Z,37.22
2019-06-15T19:31:57.255Z,37.50
2019-06-15T19:34:41.063Z,37.61
2019-06-15T19:36:57.815Z,37.95
2019-06-15T19:39:27.180Z,37.80
2019-06-15T19:41:56.445Z,37.85
2019-06-15T19:44:26.748Z,38.12
2019-06-15T19:46:56.862Z,38.03
2019-06-15T19:49:27.163Z,38.18
2019-06-15T19:51:56.625Z,38.18
2019-06-15T19:54:26.677Z,38.37
2019-06-15T19:56:57.032Z,38.51
2019-06-15T19:59:26.437Z,38.56
2019-06-15T20:01:55.786Z,38.70
2019-06-15T20:04:26.999Z,38.82
2019-06-15T20:06:56.821Z,38.80
2019-06-15T20:09:26.918Z,38.88
2019-06-15T20:11:56.319Z,38.92
2019-06-15T20:14:25.755Z,39.10
2019-06-15T20:16:56.110Z,39.27
2019-06-15T20:19:26.581Z,39.49
2019-06-15T20:21:57.917Z,39.67
2019-06-15T20:24:27.636Z,40.03
2019-06-15T20:26:58.564Z,40.09
2019-06-15T20:29:27.925Z,40.06
2019-06-15T20:31:57.267Z,40.15
2019-06-15T20:34:26.639Z,40.55
2019-06-15T20:36:55.842Z,40.77
2019-06-15T20:39:26.651Z,41.02
2019-06-15T20:41:56.469Z,41.23
2019-06-15T20:44:26.170Z,41.16
2019-06-15T20:46:57.102Z,41.39
2019-06-15T20:49:26.608Z,41.52
2019-06-15T20:51:56.193Z,41.75
2019-06-15T20:54:25.693Z,41.80
2019-06-15T20:56:56.970Z,41.98
2019-06-15T20:59:26.368Z,42.30
2019-06-15T21:01:56.284Z,42.48
2019-06-15T21:04:26.688Z,42.58
2019-06-15T21:07:03.014Z,42.53
2019-06-15T21:09:36.407Z,42.66
2019-06-15T21:12:07.674Z,42.80
2019-06-15T21:14:37.026Z,42.77
2019-06-15T21:17:09.283Z,42.83
2019-06-15T21:19:38.401Z,42.86
2019-06-15T21:22:07.623Z,42.91
2019-06-15T21:24:37.444Z,43.05
2019-06-15T21:27:06.692Z,43.16
2019-06-15T21:29:36.955Z,43.11
2019-06-15T21:32:06.361Z,42.94
2019-06-15T21:34:36.219Z,42.87
2019-06-15T21:37:06.530Z,42.88
2019-06-15T21:39:36.594Z,42.95
2019-06-15T21:42:08.063Z,42.83
2019-06-15T21:44:37.478Z,42.99
2019-06-15T21:47:07.071Z,42.74
2019-06-15T21:49:36.410Z,42.70
2019-06-15T21:52:07.228Z,42.71
2019-06-15T21:54:36.535Z,42.63
2019-06-15T21:57:07.019Z,42.78
2019-06-15T21:59:37.119Z,42.75
2019-06-15T22:02:07.138Z,42.85
2019-06-15T22:04:36.934Z,42.84
2019-06-15T22:07:06.623Z,42.95
2019-06-15T22:09:36.527Z,43.15
2019-06-15T22:12:06.905Z,43.33
2019-06-15T22:14:36.374Z,43.50
2019-06-15T22:17:06.737Z,43.65
2019-06-15T22:19:36.930Z,43.92
2019-06-15T22:22:07.450Z,43.99
2019-06-15T22:24:38.973Z,43.92
2019-06-15T22:27:08.137Z,43.98
2019-06-15T22:29:37.368Z,43.73
